createdAt,value
2017-04-13T00:00:10.392Z,8.3
2017-04-13T00:00:29.047Z,8.3
2017-04-13T00:00:47.713Z,8.3
2017-04-13T00:01:06.364Z,8.3
2017-04-13T00:01:25.014Z,8.3
2017-04-13T00:01:43.660Z,8.3
2017-04-13T00:02:02.310Z,8.3
2017-04-13T00:02:20.986Z,8.3
2017-04-13T00:02:39.628Z,8.3
2017-04-13T00:02:58.276Z,8.3
2017-04-13T00:03:16.921Z,8.2
2017-04-13T00:03:35.571Z,8.2
2017-04-13T00:03:54.219Z,8.2
2017-04-13T00:04:12.877Z,8.2
2017-04-13T00:04:31.530Z,8.2
2017-04-13T00:04:50.172Z,8.2
2017-04-13T00:05:08.830Z,8.2
2017-04-13T00:05:27.499Z,8.2
2017-04-13T00:05:46.152Z,8.2
2017-04-13T00:06:04.795Z,8.2
2017-04-13T00:06:23.439Z,8.2
2017-04-13T00:06:42.085Z,8.2
2017-04-13T00:07:00.731Z,8.2
2017-04-13T00:07:19.376Z,8.2
2017-04-13T00:07:38.029Z,8.2
2017-04-13T00:07:56.678Z,8.2
2017-04-13T00:08:15.326Z,8.1
2017-04-13T00:08:33.969Z,8.1
2017-04-13T00:08:52.643Z,8.1
2017-04-13T00:09:11.287Z,8.1
2017-04-13T00:09:29.940Z,8.1
2017-04-13T00:09:48.610Z,8.1
2017-04-13T00:10:07.250Z,8.1
2017-04-13T00:10:25.929Z,8.1
2017-04-13T00:10:44.573Z,8.1
2017-04-13T00:11:03.237Z,8.1
2017-04-13T00:11:21.880Z,8.1
2017-04-13T00:11:40.531Z,8.1
2017-04-13T00:11:59.174Z,8.1
2017-04-13T00:12:17.819Z,8
2017-04-13T00:12:36.465Z,8.1
2017-04-13T00:12:55.114Z,8.1
2017-04-13T00:13:13.766Z,8.1
2017-04-13T00:13:32.438Z,8.1
2017-04-13T00:13:51.081Z,8.1
2017-04-13T00:14:09.736Z,8.1
2017-04-13T00:14:28.384Z,8.1
2017-04-13T00:14:47.028Z,8.1
2017-04-13T00:15:05.680Z,8.1
2017-04-13T00:15:24.328Z,8.1
2017-04-13T00:15:42.979Z,8.1
2017-04-13T00:16:01.631Z,8.1
2017-04-13T00:16:20.279Z,8.1
2017-04-13T00:16:38.926Z,8.1
2017-04-13T00:16:57.598Z,8.1
2017-04-13T00:17:16.252Z,8.1
2017-04-13T00:17:34.898Z,8.1
2017-04-13T00:17:53.549Z,8.1
2017-04-13T00:18:12.186Z,8.1
2017-04-13T00:18:30.866Z,8.1
2017-04-13T00:18:49.517Z,8.1
2017-04-13T00:19:08.166Z,8
2017-04-13T00:19:26.809Z,8
2017-04-13T00:19:45.458Z,8
2017-04-13T00:20:04.111Z,8
2017-04-13T00:20:22.788Z,8
2017-04-13T00:20:41.431Z,8
2017-04-13T00:21:00.084Z,8
2017-04-13T00:21:18.738Z,8
2017-04-13T00:21:37.412Z,7.9
2017-04-13T00:21:56.059Z,7.9
2017-04-13T00:22:14.708Z,7.9
2017-04-13T00:22:33.362Z,7.9
2017-04-13T00:22:52.009Z,7.9
2017-04-13T00:23:10.658Z,7.9
2017-04-13T00:23:29.304Z,7.9
2017-04-13T00:23:47.953Z,7.9
2017-04-13T00:24:06.604Z,7.9
2017-04-13T00:24:25.255Z,7.9
2017-04-13T00:24:43.905Z,7.9
2017-04-13T00:25:02.582Z,7.9
2017-04-13T00:25:21.227Z,7.9
2017-04-13T00:25:39.892Z,8
2017-04-13T00:25:58.539Z,7.9
2017-04-13T00:26:17.195Z,7.9
2017-04-13T00:26:35.869Z,7.9
2017-04-13T00:26:54.518Z,8
2017-04-13T00:27:13.156Z,8
2017-04-13T00:27:31.801Z,8
2017-04-13T00:27:50.449Z,8
2017-04-13T00:28:09.094Z,8
2017-04-13T00:28:27.741Z,8
2017-04-13T00:28:46.381Z,8
2017-04-13T00:29:05.027Z,8
2017-04-13T00:29:23.671Z,8
2017-04-13T00:29:42.345Z,8
2017-04-13T00:30:00.995Z,8
2017-04-13T00:30:19.642Z,8
2017-04-13T00:30:38.286Z,8
2017-04-13T00:30:56.959Z,8
2017-04-13T00:31:15.605Z,8
2017-04-13T00:31:34.256Z,8
2017-04-13T00:31:52.907Z,8
2017-04-13T00:32:11.560Z,8
2017-04-13T00:32:30.250Z,8
2017-04-13T00:32:48.906Z,8
2017-04-13T00:33:07.574Z,8
2017-04-13T00:33:26.221Z,8
2017-04-13T00:33:44.863Z,8
2017-04-13T00:34:03.509Z,8
2017-04-13T00:34:22.159Z,8
2017-04-13T00:34:40.840Z,8
2017-04-13T00:34:59.486Z,8
2017-04-13T00:35:18.132Z,8
2017-04-13T00:35:36.780Z,8
2017-04-13T00:35:55.428Z,8
2017-04-13T00:36:14.081Z,8
2017-04-13T00:36:32.727Z,8
2017-04-13T00:36:51.375Z,8
2017-04-13T00:37:10.031Z,8
2017-04-13T00:37:28.678Z,8
2017-04-13T00:37:47.355Z,8
2017-04-13T00:38:06.016Z,8
2017-04-13T00:38:24.666Z,8
2017-04-13T00:38:43.317Z,8
2017-04-13T00:39:01.964Z,8
2017-04-13T00:39:20.615Z,8
2017-04-13T00:39:39.269Z,8
2017-04-13T00:39:57.916Z,8
2017-04-13T00:40:16.564Z,8
2017-04-13T00:40:35.213Z,8
2017-04-13T00:40:53.858Z,8
2017-04-13T00:41:12.530Z,8
2017-04-13T00:41:31.225Z,8
2017-04-13T00:41:49.867Z,8
2017-04-13T00:42:08.514Z,8
2017-04-13T00:42:27.169Z,8
2017-04-13T00:42:45.823Z,8
2017-04-13T00:43:04.474Z,8
2017-04-13T00:43:23.118Z,8
2017-04-13T00:43:41.763Z,8
2017-04-13T00:44:00.446Z,7.9
2017-04-13T00:44:19.097Z,7.9
2017-04-13T00:44:37.752Z,7.9
2017-04-13T00:44:56.396Z,7.9
2017-04-13T00:45:15.038Z,7.9
2017-04-13T00:45:33.688Z,7.9
2017-04-13T00:45:52.361Z,7.9
2017-04-13T00:46:11.011Z,7.9
2017-04-13T00:46:29.664Z,7.9
2017-04-13T00:46:48.313Z,7.9
2017-04-13T00:47:06.956Z,7.9
2017-04-13T00:47:25.608Z,7.9
2017-04-13T00:47:44.257Z,7.9
2017-04-13T00:48:02.907Z,7.9
2017-04-13T00:48:21.555Z,7.9
2017-04-13T00:48:40.203Z,7.9
2017-04-13T00:48:58.854Z,7.9
2017-04-13T00:49:17.516Z,7.9
2017-04-13T00:49:36.164Z,7.9
2017-04-13T00:49:54.814Z,7.9
2017-04-13T00:50:13.466Z,7.9
2017-04-13T00:50:32.128Z,7.9
2017-04-13T00:50:50.784Z,7.9
2017-04-13T00:51:09.426Z,7.9
2017-04-13T00:51:28.075Z,7.9
2017-04-13T00:51:46.718Z,7.9
2017-04-13T00:52:05.381Z,7.9
2017-04-13T00:52:24.037Z,7.9
2017-04-13T00:52:42.702Z,7.9
2017-04-13T00:53:01.357Z,7.9
2017-04-13T00:53:20.009Z,7.9
2017-04-13T00:53:38.669Z,7.9
2017-04-13T00:53:57.361Z,7.9
2017-04-13T00:54:16.008Z,7.9
2017-04-13T00:54:34.668Z,7.9
2017-04-13T00:54:53.325Z,7.9
2017-04-13T00:55:11.974Z,7.9
2017-04-13T00:55:30.629Z,7.9
2017-04-13T00:55:49.283Z,7.9
2017-04-13T00:56:07.939Z,7.9
2017-04-13T00:56:26.594Z,7.9
2017-04-13T00:56:45.281Z,7.8
2017-04-13T00:57:03.934Z,7.8
2017-04-13T00:57:22.586Z,7.9
2017-04-13T00:57:41.240Z,7.9
2017-04-13T00:57:59.893Z,7.8
2017-04-13T00:58:18.548Z,7.8
2017-04-13T00:58:37.225Z,7.8
2017-04-13T00:58:55.876Z,7.8
2017-04-13T00:59:14.536Z,7.8
2017-04-13T00:59:33.188Z,7.8
2017-04-13T00:59:51.839Z,7.8
2017-04-13T01:00:10.498Z,7.8
2017-04-13T01:00:29.160Z,7.8
2017-04-13T01:00:47.810Z,7.8
2017-04-13T01:01:06.464Z,7.8
2017-04-13T01:01:25.130Z,7.8
2017-04-13T01:01:43.788Z,7.8
2017-04-13T01:02:02.456Z,7.8
2017-04-13T01:02:21.111Z,7.8
2017-04-13T01:02:39.785Z,7.8
2017-04-13T01:02:58.439Z,7.8
2017-04-13T01:03:17.105Z,7.8
2017-04-13T01:03:35.763Z,7.8
2017-04-13T01:03:54.418Z,7.8
2017-04-13T01:04:13.074Z,7.8
2017-04-13T01:04:31.730Z,7.8
2017-04-13T01:04:50.388Z,7.8
2017-04-13T01:05:09.036Z,7.8
2017-04-13T01:05:27.696Z,7.8
2017-04-13T01:05:46.353Z,7.8
2017-04-13T01:06:05.003Z,7.8
2017-04-13T01:06:23.661Z,7.8
2017-04-13T01:06:42.339Z,7.8
2017-04-13T01:07:01.004Z,7.8
2017-04-13T01:07:19.654Z,7.8
2017-04-13T01:07:38.314Z,7.7
2017-04-13T01:07:56.977Z,7.7
2017-04-13T01:08:15.658Z,7.7
2017-04-13T01:08:34.310Z,7.7
2017-04-13T01:08:52.965Z,7.7
2017-04-13T01:09:11.619Z,7.7
2017-04-13T01:09:30.275Z,7.7
2017-04-13T01:09:48.934Z,7.7
2017-04-13T01:10:07.595Z,7.7
2017-04-13T01:10:26.256Z,7.7
2017-04-13T01:10:44.910Z,7.7
2017-04-13T01:11:03.563Z,7.7
2017-04-13T01:11:22.236Z,7.7
2017-04-13T01:11:40.895Z,7.7
2017-04-13T01:11:59.571Z,7.7
2017-04-13T01:12:18.216Z,7.7
2017-04-13T01:12:36.861Z,7.7
2017-04-13T01:12:55.523Z,7.7
2017-04-13T01:13:14.210Z,7.6
2017-04-13T01:13:32.863Z,7.6
2017-04-13T01:13:51.521Z,7.6
2017-04-13T01:14:10.179Z,7.6
2017-04-13T01:14:28.827Z,7.6
2017-04-13T01:14:47.485Z,7.6
2017-04-13T01:15:06.134Z,7.6
2017-04-13T01:15:24.790Z,7.6
2017-04-13T01:15:43.441Z,7.6
2017-04-13T01:16:02.106Z,7.6
2017-04-13T01:16:20.761Z,7.6
2017-04-13T01:16:39.420Z,7.6
2017-04-13T01:16:58.075Z,7.6
2017-04-13T01:17:16.732Z,7.6
2017-04-13T01:17:35.383Z,7.6
2017-04-13T01:17:54.040Z,7.6
2017-04-13T01:18:12.695Z,7.6
2017-04-13T01:18:31.354Z,7.6
2017-04-13T01:18:50.006Z,7.6
2017-04-13T01:19:08.662Z,7.6
2017-04-13T01:19:27.339Z,7.6
2017-04-13T01:19:45.990Z,7.6
2017-04-13T01:20:04.644Z,7.6
2017-04-13T01:20:23.292Z,7.6
2017-04-13T01:20:41.946Z,7.6
2017-04-13T01:21:00.630Z,7.6
2017-04-13T01:21:19.282Z,7.6
2017-04-13T01:21:37.931Z,7.6
2017-04-13T01:21:56.589Z,7.6
2017-04-13T01:22:15.244Z,7.6
2017-04-13T01:22:33.906Z,7.6
2017-04-13T01:22:52.564Z,7.6
2017-04-13T01:23:11.211Z,7.6
2017-04-13T01:23:29.864Z,7.6
2017-04-13T01:23:48.546Z,7.6
2017-04-13T01:24:07.232Z,7.6
2017-04-13T01:24:25.896Z,7.6
2017-04-13T01:24:44.555Z,7.6
2017-04-13T01:25:03.213Z,7.6
2017-04-13T01:25:21.860Z,7.6
2017-04-13T01:25:40.514Z,7.6
2017-04-13T01:25:59.183Z,7.6
2017-04-13T01:26:17.842Z,7.6
2017-04-13T01:26:36.498Z,7.5
2017-04-13T01:26:55.167Z,7.6
2017-04-13T01:27:13.844Z,7.6
2017-04-13T01:27:32.497Z,7.6
2017-04-13T01:27:51.150Z,7.6
2017-04-13T01:28:09.796Z,7.6
2017-04-13T01:28:28.445Z,7.6
2017-04-13T01:28:47.127Z,7.6
2017-04-13T01:29:05.784Z,7.5
2017-04-13T01:29:24.442Z,7.5
2017-04-13T01:29:43.095Z,7.5
2017-04-13T01:30:01.738Z,7.5
2017-04-13T01:30:20.396Z,7.5
2017-04-13T01:30:39.050Z,7.5
2017-04-13T01:30:57.706Z,7.5
2017-04-13T01:31:16.356Z,7.5
2017-04-13T01:31:35.002Z,7.5
2017-04-13T01:31:53.659Z,7.5
2017-04-13T01:32:12.330Z,7.5
2017-04-13T01:32:30.987Z,7.5
2017-04-13T01:32:49.638Z,7.5
2017-04-13T01:33:08.296Z,7.5
2017-04-13T01:33:26.966Z,7.5
2017-04-13T01:33:45.636Z,7.5
2017-04-13T01:34:04.291Z,7.5
2017-04-13T01:34:22.991Z,7.5
2017-04-13T01:34:41.637Z,7.5
2017-04-13T01:35:00.300Z,7.5
2017-04-13T01:35:18.950Z,7.5
2017-04-13T01:35:37.609Z,7.5
2017-04-13T01:35:56.272Z,7.5
2017-04-13T01:36:14.933Z,7.5
2017-04-13T01:36:33.589Z,7.5
2017-04-13T01:36:52.283Z,7.5
2017-04-13T01:37:10.939Z,7.5
2017-04-13T01:37:29.589Z,7.5
2017-04-13T01:37:48.242Z,7.5
2017-04-13T01:38:06.900Z,7.5
2017-04-13T01:38:25.585Z,7.5
2017-04-13T01:38:44.242Z,7.5
2017-04-13T01:39:02.894Z,7.5
2017-04-13T01:39:21.545Z,7.5
2017-04-13T01:39:40.221Z,7.5
2017-04-13T01:39:58.881Z,7.5
2017-04-13T01:40:17.539Z,7.4
2017-04-13T01:40:36.193Z,7.4
2017-04-13T01:40:54.852Z,7.4
2017-04-13T01:41:13.508Z,7.4
2017-04-13T01:41:32.197Z,7.4
2017-04-13T01:41:50.854Z,7.4
2017-04-13T01:42:09.507Z,7.4
2017-04-13T01:42:28.181Z,7.4
2017-04-13T01:42:46.856Z,7.4
2017-04-13T01:43:05.555Z,7.4
2017-04-13T01:43:24.199Z,7.4
2017-04-13T01:43:42.844Z,7.4
2017-04-13T01:44:01.492Z,7.4
2017-04-13T01:44:20.142Z,7.4
2017-04-13T01:44:38.796Z,7.4
2017-04-13T01:44:57.483Z,7.4
2017-04-13T01:45:16.148Z,7.4
2017-04-13T01:45:34.800Z,7.4
2017-04-13T01:45:53.466Z,7.4
2017-04-13T01:46:12.148Z,7.4
2017-04-13T01:46:30.795Z,7.4
2017-04-13T01:46:49.451Z,7.4
2017-04-13T01:47:08.110Z,7.4
2017-04-13T01:47:26.768Z,7.4
2017-04-13T01:47:45.437Z,7.3
2017-04-13T01:48:04.095Z,7.3
2017-04-13T01:48:22.751Z,7.3
2017-04-13T01:48:41.394Z,7.3
2017-04-13T01:49:00.041Z,7.3
2017-04-13T01:49:18.701Z,7.3
2017-04-13T01:49:37.359Z,7.3
2017-04-13T01:49:56.019Z,7.3
2017-04-13T01:50:14.683Z,7.3
2017-04-13T01:50:33.340Z,7.3
2017-04-13T01:50:52.014Z,7.3
2017-04-13T01:51:10.662Z,7.3
2017-04-13T01:51:29.312Z,7.3
2017-04-13T01:51:47.966Z,7.4
2017-04-13T01:52:06.633Z,7.4
2017-04-13T01:52:25.291Z,7.4
2017-04-13T01:52:44.942Z,7.4
2017-04-13T01:53:03.600Z,7.4
2017-04-13T01:53:22.268Z,7.4
2017-04-13T01:53:40.922Z,7.4
2017-04-13T01:53:59.581Z,7.4
2017-04-13T01:54:18.238Z,7.4
2017-04-13T01:54:36.910Z,7.4
2017-04-13T01:54:55.562Z,7.4
2017-04-13T01:55:14.203Z,7.4
2017-04-13T01:55:32.864Z,7.4
2017-04-13T01:55:51.517Z,7.4
2017-04-13T01:56:10.175Z,7.5
2017-04-13T01:56:28.838Z,7.5
2017-04-13T01:56:47.497Z,7.5
2017-04-13T01:57:06.148Z,7.5
2017-04-13T01:57:24.807Z,7.5
2017-04-13T01:57:43.488Z,7.5
2017-04-13T01:58:02.184Z,7.5
2017-04-13T01:58:20.841Z,7.5
2017-04-13T01:58:39.539Z,7.5
2017-04-13T01:58:58.210Z,7.5
2017-04-13T01:59:16.871Z,7.5
2017-04-13T01:59:35.530Z,7.5
2017-04-13T01:59:54.188Z,7.4
2017-04-13T02:00:12.839Z,7.4
2017-04-13T02:00:31.501Z,7.4
2017-04-13T02:00:50.174Z,7.4
2017-04-13T02:01:08.821Z,7.4
2017-04-13T02:01:27.481Z,7.4
2017-04-13T02:01:46.131Z,7.4
2017-04-13T02:02:04.792Z,7.4
2017-04-13T02:02:23.488Z,7.4
2017-04-13T02:02:42.172Z,7.4
2017-04-13T02:03:00.826Z,7.4
2017-04-13T02:03:19.472Z,7.4
2017-04-13T02:03:38.133Z,7.4
2017-04-13T02:03:56.788Z,7.4
2017-04-13T02:04:15.479Z,7.4
2017-04-13T02:04:34.139Z,7.4
2017-04-13T02:04:52.790Z,7.4
2017-04-13T02:05:11.446Z,7.4
2017-04-13T02:05:30.097Z,7.4
2017-04-13T02:05:48.745Z,7.4
2017-04-13T02:06:07.404Z,7.4
2017-04-13T02:06:26.048Z,7.4
2017-04-13T02:06:44.700Z,7.4
2017-04-13T02:07:03.363Z,7.4
2017-04-13T02:07:22.043Z,7.4
2017-04-13T02:07:40.690Z,7.4
2017-04-13T02:07:59.342Z,7.4
2017-04-13T02:08:17.989Z,7.4
2017-04-13T02:08:36.641Z,7.4
2017-04-13T02:08:55.298Z,7.5
2017-04-13T02:09:13.953Z,7.5
2017-04-13T02:09:32.615Z,7.5
2017-04-13T02:09:51.274Z,7.5
2017-04-13T02:10:09.926Z,7.5
2017-04-13T02:10:28.597Z,7.5
2017-04-13T02:10:47.252Z,7.5
2017-04-13T02:11:05.906Z,7.5
2017-04-13T02:11:24.591Z,7.5
2017-04-13T02:11:43.248Z,7.5
2017-04-13T02:12:01.921Z,7.5
2017-04-13T02:12:20.582Z,7.5
2017-04-13T02:12:39.239Z,7.5
2017-04-13T02:12:57.916Z,7.5
2017-04-13T02:13:16.577Z,7.5
2017-04-13T02:13:35.233Z,7.5
2017-04-13T02:13:53.889Z,7.5
2017-04-13T02:14:12.550Z,7.5
2017-04-13T02:14:31.215Z,7.5
2017-04-13T02:14:49.877Z,7.5
2017-04-13T02:15:08.535Z,7.5
2017-04-13T02:15:27.195Z,7.5
2017-04-13T02:15:45.860Z,7.5
2017-04-13T02:16:04.522Z,7.5
2017-04-13T02:16:23.172Z,7.5
2017-04-13T02:16:41.850Z,7.5
2017-04-13T02:17:00.509Z,7.5
2017-04-13T02:17:19.160Z,7.5
2017-04-13T02:17:37.820Z,7.5
2017-04-13T02:17:56.484Z,7.5
2017-04-13T02:18:15.149Z,7.5
2017-04-13T02:18:33.809Z,7.5
2017-04-13T02:18:52.461Z,7.5
2017-04-13T02:19:11.123Z,7.5
2017-04-13T02:19:29.783Z,7.5
2017-04-13T02:19:48.442Z,7.5
2017-04-13T02:20:07.126Z,7.5
2017-04-13T02:20:25.792Z,7.5
2017-04-13T02:20:44.445Z,7.5
2017-04-13T02:21:03.103Z,7.5
2017-04-13T02:21:21.775Z,7.5
2017-04-13T02:21:40.430Z,7.5
2017-04-13T02:21:59.112Z,7.5
2017-04-13T02:22:17.769Z,7.5
2017-04-13T02:22:36.423Z,7.5
2017-04-13T02:22:55.089Z,7.5
2017-04-13T02:23:13.757Z,7.5
2017-04-13T02:23:32.413Z,7.5
2017-04-13T02:23:51.055Z,7.5
2017-04-13T02:24:09.718Z,7.5
2017-04-13T02:24:28.374Z,7.5
2017-04-13T02:24:47.058Z,7.5
2017-04-13T02:25:05.707Z,7.5
2017-04-13T02:25:24.364Z,7.5
2017-04-13T02:25:43.013Z,7.5
2017-04-13T02:26:01.669Z,7.5
2017-04-13T02:26:20.350Z,7.4
2017-04-13T02:26:39.003Z,7.4
2017-04-13T02:27:02.684Z,7.4
2017-04-13T02:27:21.333Z,7.4
2017-04-13T02:27:39.986Z,7.4
2017-04-13T02:27:58.659Z,7.4
2017-04-13T02:28:17.326Z,7.4
2017-04-13T02:28:35.982Z,7.4
2017-04-13T02:28:54.642Z,7.4
2017-04-13T02:29:13.292Z,7.4
2017-04-13T02:29:31.977Z,7.4
2017-04-13T02:29:50.629Z,7.4
2017-04-13T02:30:09.283Z,7.4
2017-04-13T02:30:27.946Z,7.4
2017-04-13T02:30:46.602Z,7.4
2017-04-13T02:31:05.290Z,7.4
2017-04-13T02:31:23.945Z,7.4
2017-04-13T02:31:42.611Z,7.4
2017-04-13T02:32:01.261Z,7.4
2017-04-13T02:32:19.940Z,7.4
2017-04-13T02:32:38.582Z,7.4
2017-04-13T02:32:57.241Z,7.5
2017-04-13T02:33:15.905Z,7.5
2017-04-13T02:33:34.556Z,7.5
2017-04-13T02:33:53.209Z,7.5
2017-04-13T02:34:11.895Z,7.5
2017-04-13T02:34:30.547Z,7.5
2017-04-13T02:34:49.207Z,7.5
2017-04-13T02:35:07.863Z,7.5
2017-04-13T02:35:26.506Z,7.5
2017-04-13T02:35:45.160Z,7.5
2017-04-13T02:36:03.803Z,7.5
2017-04-13T02:36:22.460Z,7.5
2017-04-13T02:36:41.118Z,7.5
2017-04-13T02:36:59.771Z,7.4
2017-04-13T02:37:18.428Z,7.4
2017-04-13T02:37:37.094Z,7.4
2017-04-13T02:37:55.751Z,7.4
2017-04-13T02:38:14.407Z,7.4
2017-04-13T02:38:33.067Z,7.4
2017-04-13T02:38:51.740Z,7.4
2017-04-13T02:39:10.390Z,7.4
2017-04-13T02:39:29.036Z,7.4
2017-04-13T02:39:47.684Z,7.5
2017-04-13T02:40:06.338Z,7.5
2017-04-13T02:40:24.996Z,7.5
2017-04-13T02:40:43.653Z,7.5
2017-04-13T02:41:02.311Z,7.5
2017-04-13T02:41:20.967Z,7.5
2017-04-13T02:41:39.623Z,7.6
2017-04-13T02:41:58.280Z,7.6
2017-04-13T02:42:16.968Z,7.6
2017-04-13T02:42:35.618Z,7.6
2017-04-13T02:42:54.289Z,7.6
2017-04-13T02:43:12.968Z,7.6
2017-04-13T02:43:31.621Z,7.6
2017-04-13T02:43:50.307Z,7.6
2017-04-13T02:44:08.973Z,7.6
2017-04-13T02:44:27.625Z,7.6
2017-04-13T02:44:46.277Z,7.6
2017-04-13T02:45:04.943Z,7.6
2017-04-13T02:45:23.605Z,7.6
2017-04-13T02:45:42.264Z,7.6
2017-04-13T02:46:00.922Z,7.6
2017-04-13T02:46:19.579Z,7.6
2017-04-13T02:46:38.237Z,7.6
2017-04-13T02:46:56.916Z,7.6
2017-04-13T02:47:15.572Z,7.6
2017-04-13T02:47:34.229Z,7.6
2017-04-13T02:47:52.894Z,7.6
2017-04-13T02:48:11.552Z,7.6
2017-04-13T02:48:30.236Z,7.6
2017-04-13T02:48:48.887Z,7.6
2017-04-13T02:49:07.548Z,7.6
2017-04-13T02:49:26.205Z,7.6
2017-04-13T02:49:44.872Z,7.6
2017-04-13T02:50:03.519Z,7.6
2017-04-13T02:50:22.181Z,7.6
2017-04-13T02:50:40.831Z,7.6
2017-04-13T02:50:59.487Z,7.6
2017-04-13T02:51:18.151Z,7.6
2017-04-13T02:51:36.828Z,7.6
2017-04-13T02:51:55.486Z,7.6
2017-04-13T02:52:14.144Z,7.6
2017-04-13T02:52:32.796Z,7.5
2017-04-13T02:52:51.448Z,7.5
2017-04-13T02:53:10.100Z,7.5
2017-04-13T02:53:28.773Z,7.5
2017-04-13T02:53:47.419Z,7.5
2017-04-13T02:54:06.065Z,7.5
2017-04-13T02:54:24.715Z,7.5
2017-04-13T02:54:43.368Z,7.4
2017-04-13T02:55:02.029Z,7.4
2017-04-13T02:55:20.678Z,7.4
2017-04-13T02:55:39.335Z,7.4
2017-04-13T02:55:57.987Z,7.3
2017-04-13T02:56:16.650Z,7.3
2017-04-13T02:56:35.301Z,7.3
2017-04-13T02:56:53.957Z,7.3
2017-04-13T02:57:12.615Z,7.3
2017-04-13T02:57:31.269Z,7.3
2017-04-13T02:57:49.921Z,7.3
2017-04-13T02:58:08.581Z,7.3
2017-04-13T02:58:27.262Z,7.3
2017-04-13T02:58:45.917Z,7.3
2017-04-13T02:59:04.574Z,7.3
2017-04-13T02:59:23.237Z,7.3
2017-04-13T02:59:41.922Z,7.3
2017-04-13T03:00:00.579Z,7.3
2017-04-13T03:00:19.235Z,7.3
2017-04-13T03:00:37.895Z,7.3
2017-04-13T03:00:56.548Z,7.2
2017-04-13T03:01:15.236Z,7.2
2017-04-13T03:01:33.893Z,7.3
2017-04-13T03:01:52.556Z,7.3
2017-04-13T03:02:11.220Z,7.3
2017-04-13T03:02:29.875Z,7.3
2017-04-13T03:02:48.533Z,7.3
2017-04-13T03:03:07.193Z,7.3
2017-04-13T03:03:25.845Z,7.3
2017-04-13T03:03:44.509Z,7.3
2017-04-13T03:04:03.183Z,7.3
2017-04-13T03:04:21.866Z,7.3
2017-04-13T03:04:40.521Z,7.3
2017-04-13T03:04:59.186Z,7.3
2017-04-13T03:05:17.834Z,7.3
2017-04-13T03:05:36.481Z,7.3
2017-04-13T03:05:55.161Z,7.3
2017-04-13T03:06:13.815Z,7.3
2017-04-13T03:06:32.468Z,7.3
2017-04-13T03:06:51.125Z,7.4
2017-04-13T03:07:09.785Z,7.4
2017-04-13T03:07:28.448Z,7.4
2017-04-13T03:07:47.106Z,7.4
2017-04-13T03:08:05.757Z,7.4
2017-04-13T03:08:24.417Z,7.4
2017-04-13T03:08:43.075Z,7.4
2017-04-13T03:09:01.755Z,7.4
2017-04-13T03:09:20.412Z,7.4
2017-04-13T03:09:39.070Z,7.4
2017-04-13T03:09:57.726Z,7.4
2017-04-13T03:10:16.382Z,7.4
2017-04-13T03:10:35.042Z,7.4
2017-04-13T03:10:53.698Z,7.4
2017-04-13T03:11:12.355Z,7.4
2017-04-13T03:11:31.018Z,7.4
2017-04-13T03:11:49.663Z,7.4
2017-04-13T03:12:08.314Z,7.4
2017-04-13T03:12:26.972Z,7.4
2017-04-13T03:12:45.617Z,7.4
2017-04-13T03:13:04.274Z,7.4
2017-04-13T03:13:22.934Z,7.4
2017-04-13T03:13:41.627Z,7.4
2017-04-13T03:14:00.274Z,7.4
2017-04-13T03:14:18.935Z,7.4
2017-04-13T03:14:37.613Z,7.5
2017-04-13T03:14:56.271Z,7.5
2017-04-13T03:15:14.921Z,7.5
2017-04-13T03:15:33.576Z,7.5
2017-04-13T03:15:52.233Z,7.5
2017-04-13T03:16:10.889Z,7.5
2017-04-13T03:16:29.546Z,7.5
2017-04-13T03:16:48.200Z,7.5
2017-04-13T03:17:06.880Z,7.5
2017-04-13T03:17:25.538Z,7.4
2017-04-13T03:17:44.187Z,7.4
2017-04-13T03:18:02.842Z,7.4
2017-04-13T03:18:21.507Z,7.4
2017-04-13T03:18:40.174Z,7.4
2017-04-13T03:18:58.825Z,7.4
2017-04-13T03:19:17.485Z,7.4
2017-04-13T03:19:36.148Z,7.4
2017-04-13T03:19:54.810Z,7.4
2017-04-13T03:20:13.466Z,7.3
2017-04-13T03:20:32.120Z,7.3
2017-04-13T03:20:50.774Z,7.3
2017-04-13T03:21:09.429Z,7.3
2017-04-13T03:21:28.087Z,7.3
2017-04-13T03:21:46.770Z,7.3
2017-04-13T03:22:05.422Z,7.3
2017-04-13T03:22:24.075Z,7.3
2017-04-13T03:22:42.739Z,7.3
2017-04-13T03:23:01.389Z,7.3
2017-04-13T03:23:20.073Z,7.3
2017-04-13T03:23:38.735Z,7.2
2017-04-13T03:23:57.392Z,7.2
2017-04-13T03:24:16.049Z,7.2
2017-04-13T03:24:34.700Z,7.2
2017-04-13T03:24:53.366Z,7.2
2017-04-13T03:25:12.062Z,7.2
2017-04-13T03:25:30.723Z,7.2
2017-04-13T03:25:49.386Z,7.2
2017-04-13T03:26:08.046Z,7.2
2017-04-13T03:26:26.732Z,7.2
2017-04-13T03:26:45.378Z,7.2
2017-04-13T03:27:04.041Z,7.2
2017-04-13T03:27:22.694Z,7.2
2017-04-13T03:27:41.341Z,7.2
2017-04-13T03:27:59.993Z,7.2
2017-04-13T03:28:18.643Z,7.2
2017-04-13T03:28:37.290Z,7.2
2017-04-13T03:28:55.975Z,7.2
2017-04-13T03:29:14.628Z,7.2
2017-04-13T03:29:33.274Z,7.2
2017-04-13T03:29:51.926Z,7.2
2017-04-13T03:30:10.578Z,7.1
2017-04-13T03:30:29.242Z,7.1
2017-04-13T03:30:47.901Z,7.1
2017-04-13T03:31:06.574Z,7.1
2017-04-13T03:31:25.232Z,7.1
2017-04-13T03:31:43.884Z,7.1
2017-04-13T03:32:02.532Z,7.1
2017-04-13T03:32:21.186Z,7.1
2017-04-13T03:32:39.837Z,7.1
2017-04-13T03:32:58.490Z,7.1
2017-04-13T03:33:17.143Z,7.1
2017-04-13T03:33:35.794Z,7.1
2017-04-13T03:33:54.453Z,7.1
2017-04-13T03:34:13.112Z,7.1
2017-04-13T03:34:31.803Z,7.1
2017-04-13T03:34:50.453Z,7.1
2017-04-13T03:35:09.109Z,7.1
2017-04-13T03:35:27.756Z,7.1
2017-04-13T03:35:46.430Z,7.1
2017-04-13T03:36:05.097Z,7.1
2017-04-13T03:36:23.746Z,7.1
2017-04-13T03:36:42.395Z,7.1
2017-04-13T03:37:01.046Z,7.1
2017-04-13T03:37:19.694Z,7.1
2017-04-13T03:37:38.352Z,7.1
2017-04-13T03:37:57.008Z,7.1
2017-04-13T03:38:15.661Z,7.2
2017-04-13T03:38:34.319Z,7.2
2017-04-13T03:38:52.974Z,7.2
2017-04-13T03:39:11.649Z,7.2
2017-04-13T03:39:30.306Z,7.2
2017-04-13T03:39:48.954Z,7.2
2017-04-13T03:40:07.619Z,7.2
2017-04-13T03:40:26.270Z,7.2
2017-04-13T03:40:44.922Z,7.3
2017-04-13T03:41:03.583Z,7.3
2017-04-13T03:41:22.236Z,7.3
2017-04-13T03:41:40.905Z,7.3
2017-04-13T03:41:59.560Z,7.3
2017-04-13T03:42:18.217Z,7.3
2017-04-13T03:42:36.869Z,7.3
2017-04-13T03:42:55.521Z,7.3
2017-04-13T03:43:14.171Z,7.3
2017-04-13T03:43:32.831Z,7.3
2017-04-13T03:43:51.504Z,7.3
2017-04-13T03:44:10.176Z,7.3
2017-04-13T03:44:28.824Z,7.3
2017-04-13T03:44:47.470Z,7.3
2017-04-13T03:45:06.120Z,7.4
2017-04-13T03:45:24.769Z,7.4
2017-04-13T03:45:43.425Z,7.4
2017-04-13T03:46:02.078Z,7.4
2017-04-13T03:46:20.754Z,7.4
2017-04-13T03:46:39.407Z,7.4
2017-04-13T03:46:58.062Z,7.4
2017-04-13T03:47:16.744Z,7.4
2017-04-13T03:47:35.391Z,7.4
2017-04-13T03:47:54.043Z,7.4
2017-04-13T03:48:12.693Z,7.4
2017-04-13T03:48:31.343Z,7.4
2017-04-13T03:48:50.038Z,7.4
2017-04-13T03:49:08.694Z,7.4
2017-04-13T03:49:27.346Z,7.4
2017-04-13T03:49:45.996Z,7.4
2017-04-13T03:50:04.654Z,7.4
2017-04-13T03:50:23.311Z,7.4
2017-04-13T03:50:41.983Z,7.5
2017-04-13T03:51:00.637Z,7.5
2017-04-13T03:51:19.297Z,7.5
2017-04-13T03:51:37.968Z,7.5
2017-04-13T03:51:56.648Z,7.5
2017-04-13T03:52:15.307Z,7.5
2017-04-13T03:52:33.965Z,7.5
2017-04-13T03:52:52.627Z,7.5
2017-04-13T03:53:11.283Z,7.5
2017-04-13T03:53:29.962Z,7.5
2017-04-13T03:53:48.619Z,7.5
2017-04-13T03:54:07.267Z,7.5
2017-04-13T03:54:25.921Z,7.5
2017-04-13T03:54:44.575Z,7.5
2017-04-13T03:55:03.226Z,7.5
2017-04-13T03:55:21.877Z,7.5
2017-04-13T03:55:40.537Z,7.5
2017-04-13T03:55:59.194Z,7.5
2017-04-13T03:56:17.844Z,7.5
2017-04-13T03:56:36.528Z,7.5
2017-04-13T03:56:55.216Z,7.5
2017-04-13T03:57:13.864Z,7.5
2017-04-13T03:57:32.522Z,7.5
2017-04-13T03:57:51.175Z,7.5
2017-04-13T03:58:09.836Z,7.5
2017-04-13T03:58:28.491Z,7.5
2017-04-13T03:58:47.149Z,7.5
2017-04-13T03:59:05.818Z,7.5
2017-04-13T03:59:24.501Z,7.5
2017-04-13T03:59:43.159Z,7.5
2017-04-13T04:00:01.816Z,7.5
2017-04-13T04:00:20.477Z,7.5
2017-04-13T04:00:39.127Z,7.5
2017-04-13T04:00:57.784Z,7.5
2017-04-13T04:01:16.454Z,7.5
2017-04-13T04:01:35.112Z,7.5
2017-04-13T04:01:53.769Z,7.5
2017-04-13T04:02:12.427Z,7.5
2017-04-13T04:02:31.086Z,7.5
2017-04-13T04:02:49.752Z,7.5
2017-04-13T04:03:08.412Z,7.5
2017-04-13T04:03:27.080Z,7.5
2017-04-13T04:03:45.737Z,7.5
2017-04-13T04:04:04.393Z,7.5
2017-04-13T04:04:23.047Z,7.5
2017-04-13T04:04:41.715Z,7.5
2017-04-13T04:05:00.373Z,7.5
2017-04-13T04:05:19.052Z,7.5
2017-04-13T04:08:53.273Z,7.5
2017-04-13T04:09:11.910Z,7.5
2017-04-13T04:09:30.543Z,7.5
2017-04-13T04:09:49.179Z,7.5
2017-04-13T04:10:07.807Z,7.5
2017-04-13T04:10:26.471Z,7.5
2017-04-13T04:10:45.106Z,7.5
2017-04-13T04:11:03.734Z,7.5
2017-04-13T04:11:22.363Z,7.5
2017-04-13T04:11:40.993Z,7.5
2017-04-13T04:11:59.627Z,7.5
2017-04-13T04:12:18.263Z,7.5
2017-04-13T04:12:36.896Z,7.5
2017-04-13T04:12:55.533Z,7.4
2017-04-13T04:13:14.165Z,7.4
2017-04-13T04:13:32.801Z,7.4
2017-04-13T04:13:51.459Z,7.4
2017-04-13T04:14:10.101Z,7.4
2017-04-13T04:14:28.769Z,7.4
2017-04-13T04:14:47.404Z,7.4
2017-04-13T04:15:06.043Z,7.4
2017-04-13T04:15:24.680Z,7.4
2017-04-13T04:15:43.320Z,7.4
2017-04-13T04:16:01.956Z,7.4
2017-04-13T04:16:20.598Z,7.4
2017-04-13T04:16:39.237Z,7.4
2017-04-13T04:16:57.872Z,7.4
2017-04-13T04:17:16.532Z,7.4
2017-04-13T04:17:35.165Z,7.4
2017-04-13T04:17:53.801Z,7.5
2017-04-13T04:18:12.433Z,7.5
2017-04-13T04:18:31.066Z,7.5
2017-04-13T04:18:49.701Z,7.5
2017-04-13T04:19:08.331Z,7.5
2017-04-13T04:19:26.984Z,7.5
2017-04-13T04:19:45.621Z,7.5
2017-04-13T04:20:04.260Z,7.5
2017-04-13T04:20:22.896Z,7.5
2017-04-13T04:20:41.566Z,7.5
2017-04-13T04:21:00.202Z,7.5
2017-04-13T04:21:18.837Z,7.5
2017-04-13T04:21:37.474Z,7.5